sensor_id;sensor_type;location;lat;lon;timestamp;P1;durP1;ratioP1;P2;durP2;ratioP2
75426;SDS011;64007;50.632;13.700;2024-03-22T00:01:47;19.17;;;10.70;;
75426;SDS011;64007;50.632;13.700;2024-03-22T00:04:13;18.90;;;11.38;;
75426;SDS011;64007;50.632;13.700;2024-03-22T00:06:43;21.00;;;10.43;;
75426;SDS011;64007;50.632;13.700;2024-03-22T00:09:11;19.83;;;10.63;;
75426;SDS011;64007;50.632;13.700;2024-03-22T00:11:38;20.30;;;10.93;;
75426;SDS011;64007;50.632;13.700;2024-03-22T00:14:05;18.35;;;10.35;;
75426;SDS011;64007;50.632;13.700;2024-03-22T00:16:31;18.08;;;11.02;;
75426;SDS011;64007;50.632;13.700;2024-03-22T00:18:56;17.58;;;11.32;;
75426;SDS011;64007;50.632;13.700;2024-03-22T00:21:22;19.27;;;11.00;;
75426;SDS011;64007;50.632;13.700;2024-03-22T00:23:48;22.17;;;11.10;;
75426;SDS011;64007;50.632;13.700;2024-03-22T00:26:14;20.60;;;11.02;;
75426;SDS011;64007;50.632;13.700;2024-03-22T00:28:40;23.63;;;12.23;;
75426;SDS011;64007;50.632;13.700;2024-03-22T00:31:06;22.63;;;12.15;;
75426;SDS011;64007;50.632;13.700;2024-03-22T00:33:32;23.83;;;13.18;;
75426;SDS011;64007;50.632;13.700;2024-03-22T00:35:58;21.58;;;12.05;;
75426;SDS011;64007;50.632;13.700;2024-03-22T00:38:23;22.13;;;12.48;;
75426;SDS011;64007;50.632;13.700;2024-03-22T00:40:50;23.77;;;13.20;;
75426;SDS011;64007;50.632;13.700;2024-03-22T00:43:15;22.98;;;13.05;;
75426;SDS011;64007;50.632;13.700;2024-03-22T00:45:41;21.92;;;12.95;;
75426;SDS011;64007;50.632;13.700;2024-03-22T00:48:07;18.52;;;11.90;;
75426;SDS011;64007;50.632;13.700;2024-03-22T00:50:33;19.00;;;12.05;;
75426;SDS011;64007;50.632;13.700;2024-03-22T00:52:58;22.10;;;12.40;;
75426;SDS011;64007;50.632;13.700;2024-03-22T00:55:24;20.98;;;11.68;;
75426;SDS011;64007;50.632;13.700;2024-03-22T00:57:50;18.48;;;10.82;;
75426;SDS011;64007;50.632;13.700;2024-03-22T01:00:17;24.08;;;11.00;;
75426;SDS011;64007;50.632;13.700;2024-03-22T01:02:43;18.20;;;10.65;;
75426;SDS011;64007;50.632;13.700;2024-03-22T01:05:09;20.67;;;10.13;;
75426;SDS011;64007;50.632;13.700;2024-03-22T01:07:35;17.20;;;10.23;;
75426;SDS011;64007;50.632;13.700;2024-03-22T01:10:03;22.83;;;10.50;;
75426;SDS011;64007;50.632;13.700;2024-03-22T01:12:31;16.83;;;10.35;;
75426;SDS011;64007;50.632;13.700;2024-03-22T01:14:57;15.45;;;9.85;;
75426;SDS011;64007;50.632;13.700;2024-03-22T01:17:23;14.38;;;9.57;;
75426;SDS011;64007;50.632;13.700;2024-03-22T01:19:49;16.63;;;9.07;;
75426;SDS011;64007;50.632;13.700;2024-03-22T01:22:16;15.15;;;9.68;;
75426;SDS011;64007;50.632;13.700;2024-03-22T01:24:43;14.50;;;9.32;;
75426;SDS011;64007;50.632;13.700;2024-03-22T01:27:09;17.00;;;9.75;;
75426;SDS011;64007;50.632;13.700;2024-03-22T01:29:35;16.08;;;9.38;;
75426;SDS011;64007;50.632;13.700;2024-03-22T01:32:02;19.08;;;10.32;;
75426;SDS011;64007;50.632;13.700;2024-03-22T01:34:28;19.58;;;10.07;;
75426;SDS011;64007;50.632;13.700;2024-03-22T01:36:54;15.07;;;9.15;;
75426;SDS011;64007;50.632;13.700;2024-03-22T01:39:20;17.13;;;9.05;;
75426;SDS011;64007;50.632;13.700;2024-03-22T01:41:47;14.15;;;8.20;;
75426;SDS011;64007;50.632;13.700;2024-03-22T01:44:13;15.77;;;7.72;;
75426;SDS011;64007;50.632;13.700;2024-03-22T01:46:42;12.20;;;7.55;;
75426;SDS011;64007;50.632;13.700;2024-03-22T01:49:14;13.75;;;7.75;;
75426;SDS011;64007;50.632;13.700;2024-03-22T01:51:41;16.75;;;8.15;;
75426;SDS011;64007;50.632;13.700;2024-03-22T01:54:08;12.75;;;7.90;;
75426;SDS011;64007;50.632;13.700;2024-03-22T01:56:38;14.43;;;7.28;;
75426;SDS011;64007;50.632;13.700;2024-03-22T01:59:04;12.45;;;7.45;;
75426;SDS011;64007;50.632;13.700;2024-03-22T02:01:31;11.77;;;6.97;;
75426;SDS011;64007;50.632;13.700;2024-03-22T02:03:57;14.02;;;7.20;;
75426;SDS011;64007;50.632;13.700;2024-03-22T02:06:23;16.23;;;7.97;;
75426;SDS011;64007;50.632;13.700;2024-03-22T02:08:49;10.57;;;7.03;;
75426;SDS011;64007;50.632;13.700;2024-03-22T02:11:14;16.77;;;8.05;;
75426;SDS011;64007;50.632;13.700;2024-03-22T02:13:40;10.90;;;6.78;;
75426;SDS011;64007;50.632;13.700;2024-03-22T02:16:08;11.77;;;7.20;;
75426;SDS011;64007;50.632;13.700;2024-03-22T02:18:34;13.70;;;7.18;;
75426;SDS011;64007;50.632;13.700;2024-03-22T02:21:00;12.57;;;7.35;;
75426;SDS011;64007;50.632;13.700;2024-03-22T02:23:44;14.27;;;6.95;;
75426;SDS011;64007;50.632;13.700;2024-03-22T02:26:09;12.00;;;7.35;;
75426;SDS011;64007;50.632;13.700;2024-03-22T02:28:35;13.40;;;7.38;;
75426;SDS011;64007;50.632;13.700;2024-03-22T02:31:01;13.18;;;6.70;;
75426;SDS011;64007;50.632;13.700;2024-03-22T02:33:28;10.77;;;6.63;;
75426;SDS011;64007;50.632;13.700;2024-03-22T02:35:54;12.23;;;7.05;;
75426;SDS011;64007;50.632;13.700;2024-03-22T02:38:20;11.73;;;6.40;;
75426;SDS011;64007;50.632;13.700;2024-03-22T02:40:46;9.32;;;6.05;;
75426;SDS011;64007;50.632;13.700;2024-03-22T02:43:13;11.18;;;6.68;;
75426;SDS011;64007;50.632;13.700;2024-03-22T02:45:39;15.27;;;6.68;;
75426;SDS011;64007;50.632;13.700;2024-03-22T02:48:05;12.38;;;6.55;;
75426;SDS011;64007;50.632;13.700;2024-03-22T02:50:35;12.57;;;6.88;;
75426;SDS011;64007;50.632;13.700;2024-03-22T02:53:02;24.67;;;7.90;;
75426;SDS011;64007;50.632;13.700;2024-03-22T02:55:28;13.25;;;6.43;;
75426;SDS011;64007;50.632;13.700;2024-03-22T02:57:55;10.85;;;6.05;;
75426;SDS011;64007;50.632;13.700;2024-03-22T03:00:22;15.48;;;6.07;;
75426;SDS011;64007;50.632;13.700;2024-03-22T03:02:48;11.98;;;6.57;;
75426;SDS011;64007;50.632;13.700;2024-03-22T03:05:14;14.88;;;6.55;;
75426;SDS011;64007;50.632;13.700;2024-03-22T03:07:40;11.73;;;6.05;;
75426;SDS011;64007;50.632;13.700;2024-03-22T03:10:06;17.42;;;6.60;;
75426;SDS011;64007;50.632;13.700;2024-03-22T03:12:32;10.75;;;6.00;;
75426;SDS011;64007;50.632;13.700;2024-03-22T03:14:58;13.35;;;5.60;;
75426;SDS011;64007;50.632;13.700;2024-03-22T03:17:24;10.90;;;6.20;;
75426;SDS011;64007;50.632;13.700;2024-03-22T03:19:49;9.07;;;5.25;;
75426;SDS011;64007;50.632;13.700;2024-03-22T03:22:15;10.63;;;5.75;;
75426;SDS011;64007;50.632;13.700;2024-03-22T03:24:41;13.18;;;5.47;;
75426;SDS011;64007;50.632;13.700;2024-03-22T03:27:07;8.13;;;5.05;;
75426;SDS011;64007;50.632;13.700;2024-03-22T03:29:32;12.68;;;5.43;;
75426;SDS011;64007;50.632;13.700;2024-03-22T03:31:59;8.05;;;4.95;;
75426;SDS011;64007;50.632;13.700;2024-03-22T03:34:24;8.43;;;5.18;;
75426;SDS011;64007;50.632;13.700;2024-03-22T03:36:50;9.48;;;5.03;;
75426;SDS011;64007;50.632;13.700;2024-03-22T03:39:16;9.25;;;5.10;;
75426;SDS011;64007;50.632;13.700;2024-03-22T03:41:42;6.95;;;4.68;;
75426;SDS011;64007;50.632;13.700;2024-03-22T03:44:07;11.98;;;5.25;;
75426;SDS011;64007;50.632;13.700;2024-03-22T03:46:33;9.43;;;5.60;;
75426;SDS011;64007;50.632;13.700;2024-03-22T03:48:58;13.48;;;5.72;;
75426;SDS011;64007;50.632;13.700;2024-03-22T03:51:24;9.15;;;5.15;;
75426;SDS011;64007;50.632;13.700;2024-03-22T03:53:50;8.55;;;4.72;;
75426;SDS011;64007;50.632;13.700;2024-03-22T03:56:16;9.93;;;5.05;;
75426;SDS011;64007;50.632;13.700;2024-03-22T03:58:41;10.40;;;4.72;;
75426;SDS011;64007;50.632;13.700;2024-03-22T04:01:07;13.27;;;5.00;;
75426;SDS011;64007;50.632;13.700;2024-03-22T04:03:34;9.75;;;3.97;;
75426;SDS011;64007;50.632;13.700;2024-03-22T04:06:00;11.85;;;4.80;;
75426;SDS011;64007;50.632;13.700;2024-03-22T04:08:26;7.93;;;4.63;;
75426;SDS011;64007;50.632;13.700;2024-03-22T04:10:55;16.42;;;6.68;;
75426;SDS011;64007;50.632;13.700;2024-03-22T04:13:25;12.15;;;6.68;;
75426;SDS011;64007;50.632;13.700;2024-03-22T04:15:52;12.60;;;6.10;;
75426;SDS011;64007;50.632;13.700;2024-03-22T04:18:18;11.57;;;6.57;;
75426;SDS011;64007;50.632;13.700;2024-03-22T04:20:56;9.73;;;6.03;;
75426;SDS011;64007;50.632;13.700;2024-03-22T04:23:23;12.23;;;5.88;;
75426;SDS011;64007;50.632;13.700;2024-03-22T04:25:54;12.02;;;6.40;;
75426;SDS011;64007;50.632;13.700;2024-03-22T04:28:20;16.63;;;7.20;;
75426;SDS011;64007;50.632;13.700;2024-03-22T04:31:02;10.10;;;6.28;;
75426;SDS011;64007;50.632;13.700;2024-03-22T04:33:29;9.68;;;5.75;;
75426;SDS011;64007;50.632;13.700;2024-03-22T04:35:56;10.35;;;5.93;;
75426;SDS011;64007;50.632;13.700;2024-03-22T04:38:22;14.82;;;5.65;;
75426;SDS011;64007;50.632;13.700;2024-03-22T04:40:49;10.80;;;5.40;;
75426;SDS011;64007;50.632;13.700;2024-03-22T04:43:15;15.10;;;5.50;;
75426;SDS011;64007;50.632;13.700;2024-03-22T04:45:45;11.95;;;5.13;;
75426;SDS011;64007;50.632;13.700;2024-03-22T04:48:12;7.88;;;4.75;;
75426;SDS011;64007;50.632;13.700;2024-03-22T04:50:39;11.95;;;5.03;;
75426;SDS011;64007;50.632;13.700;2024-03-22T04:53:05;9.70;;;5.15;;
75426;SDS011;64007;50.632;13.700;2024-03-22T04:55:31;11.05;;;5.45;;
75426;SDS011;64007;50.632;13.700;2024-03-22T04:57:58;10.52;;;5.32;;
75426;SDS011;64007;50.632;13.700;2024-03-22T05:00:24;10.35;;;4.50;;
75426;SDS011;64007;50.632;13.700;2024-03-22T05:02:53;22.08;;;5.85;;
75426;SDS011;64007;50.632;13.700;2024-03-22T05:05:19;8.48;;;4.70;;
75426;SDS011;64007;50.632;13.700;2024-03-22T05:07:45;9.80;;;4.30;;
75426;SDS011;64007;50.632;13.700;2024-03-22T05:10:11;10.68;;;4.65;;
75426;SDS011;64007;50.632;13.700;2024-03-22T05:12:37;7.78;;;3.97;;
75426;SDS011;64007;50.632;13.700;2024-03-22T05:15:03;11.85;;;4.47;;
75426;SDS011;64007;50.632;13.700;2024-03-22T05:17:29;14.05;;;4.35;;
75426;SDS011;64007;50.632;13.700;2024-03-22T05:19:58;8.45;;;3.55;;
75426;SDS011;64007;50.632;13.700;2024-03-22T05:22:24;7.32;;;3.33;;
75426;SDS011;64007;50.632;13.700;2024-03-22T05:24:50;7.90;;;3.70;;
75426;SDS011;64007;50.632;13.700;2024-03-22T05:27:16;7.68;;;4.13;;
75426;SDS011;64007;50.632;13.700;2024-03-22T05:29:43;10.65;;;4.15;;
75426;SDS011;64007;50.632;13.700;2024-03-22T05:32:08;14.00;;;5.07;;
75426;SDS011;64007;50.632;13.700;2024-03-22T05:34:34;13.18;;;4.03;;
75426;SDS011;64007;50.632;13.700;2024-03-22T05:37:01;7.45;;;3.75;;
75426;SDS011;64007;50.632;13.700;2024-03-22T05:39:27;10.15;;;4.28;;
75426;SDS011;64007;50.632;13.700;2024-03-22T05:41:52;9.90;;;4.38;;
75426;SDS011;64007;50.632;13.700;2024-03-22T05:44:22;14.02;;;4.20;;
75426;SDS011;64007;50.632;13.700;2024-03-22T05:46:48;13.48;;;4.43;;
75426;SDS011;64007;50.632;13.700;2024-03-22T05:49:14;7.22;;;4.60;;
75426;SDS011;64007;50.632;13.700;2024-03-22T05:51:40;10.43;;;4.85;;
75426;SDS011;64007;50.632;13.700;2024-03-22T05:54:06;11.88;;;5.22;;
75426;SDS011;64007;50.632;13.700;2024-03-22T05:56:31;13.48;;;4.85;;
75426;SDS011;64007;50.632;13.700;2024-03-22T05:58:57;9.13;;;4.95;;
75426;SDS011;64007;50.632;13.700;2024-03-22T06:01:23;9.25;;;4.88;;
75426;SDS011;64007;50.632;13.700;2024-03-22T06:03:49;9.52;;;4.50;;
75426;SDS011;64007;50.632;13.700;2024-03-22T06:06:14;15.43;;;4.97;;
75426;SDS011;64007;50.632;13.700;2024-03-22T06:08:41;11.88;;;5.03;;
75426;SDS011;64007;50.632;13.700;2024-03-22T06:11:09;12.45;;;5.43;;
75426;SDS011;64007;50.632;13.700;2024-03-22T06:13:34;10.70;;;4.80;;
75426;SDS011;64007;50.632;13.700;2024-03-22T06:16:01;9.32;;;4.55;;
75426;SDS011;64007;50.632;13.700;2024-03-22T06:18:27;8.85;;;4.20;;
75426;SDS011;64007;50.632;13.700;2024-03-22T06:20:53;9.75;;;4.47;;
75426;SDS011;64007;50.632;13.700;2024-03-22T06:23:23;8.65;;;3.88;;
75426;SDS011;64007;50.632;13.700;2024-03-22T06:25:54;15.10;;;4.75;;
75426;SDS011;64007;50.632;13.700;2024-03-22T06:28:21;11.10;;;4.55;;
75426;SDS011;64007;50.632;13.700;2024-03-22T06:30:47;8.05;;;4.43;;
75426;SDS011;64007;50.632;13.700;2024-03-22T06:33:13;8.93;;;4.10;;
75426;SDS011;64007;50.632;13.700;2024-03-22T06:35:39;7.85;;;4.22;;
75426;SDS011;64007;50.632;13.700;2024-03-22T06:38:06;9.95;;;4.25;;
75426;SDS011;64007;50.632;13.700;2024-03-22T06:40:31;14.38;;;4.30;;
75426;SDS011;64007;50.632;13.700;2024-03-22T06:42:57;13.25;;;5.00;;
75426;SDS011;64007;50.632;13.700;2024-03-22T06:45:23;12.40;;;5.10;;
75426;SDS011;64007;50.632;13.700;2024-03-22T06:47:49;12.68;;;5.10;;
75426;SDS011;64007;50.632;13.700;2024-03-22T06:50:15;13.80;;;4.88;;
75426;SDS011;64007;50.632;13.700;2024-03-22T06:52:43;16.17;;;5.00;;
75426;SDS011;64007;50.632;13.700;2024-03-22T06:55:09;8.77;;;4.68;;
75426;SDS011;64007;50.632;13.700;2024-03-22T06:57:37;14.55;;;4.53;;
75426;SDS011;64007;50.632;13.700;2024-03-22T07:00:03;12.18;;;4.95;;
75426;SDS011;64007;50.632;13.700;2024-03-22T07:02:29;11.60;;;4.97;;
75426;SDS011;64007;50.632;13.700;2024-03-22T07:04:55;9.63;;;5.10;;
75426;SDS011;64007;50.632;13.700;2024-03-22T07:07:21;10.98;;;4.75;;
75426;SDS011;64007;50.632;13.700;2024-03-22T07:09:46;7.38;;;4.15;;
75426;SDS011;64007;50.632;13.700;2024-03-22T07:12:19;7.53;;;4.43;;
75426;SDS011;64007;50.632;13.700;2024-03-22T07:14:45;7.43;;;4.72;;
75426;SDS011;64007;50.632;13.700;2024-03-22T07:22:22;8.98;;;4.30;;
75426;SDS011;64007;50.632;13.700;2024-03-22T07:24:48;14.65;;;5.05;;
75426;SDS011;64007;50.632;13.700;2024-03-22T07:27:17;12.10;;;5.47;;
75426;SDS011;64007;50.632;13.700;2024-03-22T07:29:51;9.52;;;5.13;;
75426;SDS011;64007;50.632;13.700;2024-03-22T07:32:20;13.07;;;4.82;;
75426;SDS011;64007;50.632;13.700;2024-03-22T07:35:03;11.48;;;4.57;;
75426;SDS011;64007;50.632;13.700;2024-03-22T07:37:37;11.68;;;4.57;;
75426;SDS011;64007;50.632;13.700;2024-03-22T07:40:05;10.18;;;4.63;;
75426;SDS011;64007;50.632;13.700;2024-03-22T07:42:31;13.25;;;4.68;;
75426;SDS011;64007;50.632;13.700;2024-03-22T07:45:00;11.23;;;4.95;;
75426;SDS011;64007;50.632;13.700;2024-03-22T07:47:38;8.88;;;4.97;;
75426;SDS011;64007;50.632;13.700;2024-03-22T07:50:13;10.10;;;5.47;;
75426;SDS011;64007;50.632;13.700;2024-03-22T07:52:39;12.82;;;5.55;;
75426;SDS011;64007;50.632;13.700;2024-03-22T07:58:08;11.63;;;5.43;;
75426;SDS011;64007;50.632;13.700;2024-03-22T08:00:34;9.15;;;5.20;;
75426;SDS011;64007;50.632;13.700;2024-03-22T08:03:04;12.93;;;6.18;;
75426;SDS011;64007;50.632;13.700;2024-03-22T08:05:33;17.23;;;6.20;;
75426;SDS011;64007;50.632;13.700;2024-03-22T08:10:41;12.27;;;5.18;;
75426;SDS011;64007;50.632;13.700;2024-03-22T08:21:05;9.23;;;5.00;;
75426;SDS011;64007;50.632;13.700;2024-03-22T08:23:30;18.55;;;6.25;;
75426;SDS011;64007;50.632;13.700;2024-03-22T08:25:57;13.77;;;5.88;;
75426;SDS011;64007;50.632;13.700;2024-03-22T08:28:28;30.08;;;7.38;;
75426;SDS011;64007;50.632;13.700;2024-03-22T08:30:54;23.58;;;6.00;;
75426;SDS011;64007;50.632;13.700;2024-03-22T08:33:20;17.63;;;6.20;;
75426;SDS011;64007;50.632;13.700;2024-03-22T08:35:45;47.45;;;10.07;;
75426;SDS011;64007;50.632;13.700;2024-03-22T08:38:11;22.00;;;5.80;;
75426;SDS011;64007;50.632;13.700;2024-03-22T08:40:40;19.30;;;5.90;;
75426;SDS011;64007;50.632;13.700;2024-03-22T08:43:06;19.30;;;5.80;;
75426;SDS011;64007;50.632;13.700;2024-03-22T08:45:35;24.05;;;5.93;;
75426;SDS011;64007;50.632;13.700;2024-03-22T08:48:01;11.18;;;5.53;;
75426;SDS011;64007;50.632;13.700;2024-03-22T08:50:27;16.88;;;6.05;;
75426;SDS011;64007;50.632;13.700;2024-03-22T08:52:52;16.70;;;5.22;;
75426;SDS011;64007;50.632;13.700;2024-03-22T08:55:18;13.32;;;6.35;;
75426;SDS011;64007;50.632;13.700;2024-03-22T08:57:44;17.13;;;5.97;;
75426;SDS011;64007;50.632;13.700;2024-03-22T09:00:11;11.77;;;6.13;;
75426;SDS011;64007;50.632;13.700;2024-03-22T09:02:37;19.05;;;5.72;;
75426;SDS011;64007;50.632;13.700;2024-03-22T09:05:06;13.88;;;5.90;;
75426;SDS011;64007;50.632;13.700;2024-03-22T09:07:33;11.15;;;5.95;;
75426;SDS011;64007;50.632;13.700;2024-03-22T09:09:59;16.20;;;5.82;;
75426;SDS011;64007;50.632;13.700;2024-03-22T09:12:25;19.00;;;5.82;;
75426;SDS011;64007;50.632;13.700;2024-03-22T09:14:51;15.48;;;5.90;;
75426;SDS011;64007;50.632;13.700;2024-03-22T09:17:16;16.23;;;6.95;;
75426;SDS011;64007;50.632;13.700;2024-03-22T09:19:43;10.85;;;6.22;;
75426;SDS011;64007;50.632;13.700;2024-03-22T09:22:08;12.80;;;6.43;;
75426;SDS011;64007;50.632;13.700;2024-03-22T09:24:34;13.63;;;5.85;;
75426;SDS011;64007;50.632;13.700;2024-03-22T09:27:00;10.52;;;6.07;;
75426;SDS011;64007;50.632;13.700;2024-03-22T09:29:26;14.00;;;5.57;;
75426;SDS011;64007;50.632;13.700;2024-03-22T09:31:51;12.00;;;5.32;;
75426;SDS011;64007;50.632;13.700;2024-03-22T09:34:17;15.02;;;5.50;;
75426;SDS011;64007;50.632;13.700;2024-03-22T09:36:43;10.50;;;5.38;;
75426;SDS011;64007;50.632;13.700;2024-03-22T09:39:08;16.00;;;5.50;;
75426;SDS011;64007;50.632;13.700;2024-03-22T09:41:34;13.63;;;5.15;;
75426;SDS011;64007;50.632;13.700;2024-03-22T09:44:07;10.82;;;5.03;;
75426;SDS011;64007;50.632;13.700;2024-03-22T09:46:42;11.17;;;5.73;;
75426;SDS011;64007;50.632;13.700;2024-03-22T09:49:11;12.77;;;4.93;;
75426;SDS011;64007;50.632;13.700;2024-03-22T09:51:38;14.20;;;5.20;;
75426;SDS011;64007;50.632;13.700;2024-03-22T09:54:05;12.43;;;5.32;;
75426;SDS011;64007;50.632;13.700;2024-03-22T09:56:31;15.20;;;5.20;;
75426;SDS011;64007;50.632;13.700;2024-03-22T09:58:57;7.82;;;4.80;;
75426;SDS011;64007;50.632;13.700;2024-03-22T10:01:26;9.55;;;4.60;;
75426;SDS011;64007;50.632;13.700;2024-03-22T10:03:53;13.98;;;4.55;;
75426;SDS011;64007;50.632;13.700;2024-03-22T10:06:20;11.75;;;4.80;;
75426;SDS011;64007;50.632;13.700;2024-03-22T10:08:46;8.90;;;4.60;;
75426;SDS011;64007;50.632;13.700;2024-03-22T10:11:11;10.57;;;4.80;;
75426;SDS011;64007;50.632;13.700;2024-03-22T10:13:37;19.55;;;4.63;;
75426;SDS011;64007;50.632;13.700;2024-03-22T10:16:03;13.45;;;4.63;;
75426;SDS011;64007;50.632;13.700;2024-03-22T10:18:31;8.63;;;4.55;;
75426;SDS011;64007;50.632;13.700;2024-03-22T10:21:01;14.68;;;4.80;;
75426;SDS011;64007;50.632;13.700;2024-03-22T10:23:29;10.65;;;4.68;;
75426;SDS011;64007;50.632;13.700;2024-03-22T10:25:56;11.40;;;4.82;;
75426;SDS011;64007;50.632;13.700;2024-03-22T10:28:27;13.13;;;5.13;;
75426;SDS011;64007;50.632;13.700;2024-03-22T10:30:53;8.90;;;4.40;;
75426;SDS011;64007;50.632;13.700;2024-03-22T10:33:19;14.60;;;5.18;;
75426;SDS011;64007;50.632;13.700;2024-03-22T10:35:51;14.50;;;4.93;;
75426;SDS011;64007;50.632;13.700;2024-03-22T10:38:18;20.63;;;4.95;;
75426;SDS011;64007;50.632;13.700;2024-03-22T10:40:44;17.52;;;5.35;;
75426;SDS011;64007;50.632;13.700;2024-03-22T10:43:12;12.18;;;4.75;;
75426;SDS011;64007;50.632;13.700;2024-03-22T10:45:39;23.05;;;6.22;;
75426;SDS011;64007;50.632;13.700;2024-03-22T10:48:08;13.57;;;5.20;;
75426;SDS011;64007;50.632;13.700;2024-03-22T10:50:38;12.82;;;5.20;;
75426;SDS011;64007;50.632;13.700;2024-03-22T10:53:06;12.05;;;5.30;;
75426;SDS011;64007;50.632;13.700;2024-03-22T10:55:35;9.45;;;4.53;;
75426;SDS011;64007;50.632;13.700;2024-03-22T10:58:03;15.15;;;5.13;;
75426;SDS011;64007;50.632;13.700;2024-03-22T11:00:30;17.60;;;4.75;;
75426;SDS011;64007;50.632;13.700;2024-03-22T11:02:57;14.15;;;4.70;;
75426;SDS011;64007;50.632;13.700;2024-03-22T11:05:25;9.77;;;4.80;;
75426;SDS011;64007;50.632;13.700;2024-03-22T11:10:30;13.18;;;5.05;;
75426;SDS011;64007;50.632;13.700;2024-03-22T11:13:03;16.77;;;4.63;;
75426;SDS011;64007;50.632;13.700;2024-03-22T11:15:33;16.42;;;5.35;;
75426;SDS011;64007;50.632;13.700;2024-03-22T11:17:59;12.82;;;4.82;;
75426;SDS011;64007;50.632;13.700;2024-03-22T11:20:25;20.85;;;4.38;;
75426;SDS011;64007;50.632;13.700;2024-03-22T11:22:52;10.38;;;4.18;;
75426;SDS011;64007;50.632;13.700;2024-03-22T11:25:18;10.68;;;4.57;;
75426;SDS011;64007;50.632;13.700;2024-03-22T11:27:45;20.08;;;4.53;;
75426;SDS011;64007;50.632;13.700;2024-03-22T11:30:11;8.68;;;3.95;;
75426;SDS011;64007;50.632;13.700;2024-03-22T11:32:37;8.82;;;4.82;;
75426;SDS011;64007;50.632;13.700;2024-03-22T11:35:09;11.00;;;4.68;;
75426;SDS011;64007;50.632;13.700;2024-03-22T11:37:38;18.60;;;4.60;;
75426;SDS011;64007;50.632;13.700;2024-03-22T11:40:04;16.02;;;4.90;;
75426;SDS011;64007;50.632;13.700;2024-03-22T11:42:32;11.73;;;5.10;;
75426;SDS011;64007;50.632;13.700;2024-03-22T11:44:59;19.15;;;4.78;;
75426;SDS011;64007;50.632;13.700;2024-03-22T11:47:26;22.65;;;5.15;;
75426;SDS011;64007;50.632;13.700;2024-03-22T11:49:52;20.23;;;4.80;;
75426;SDS011;64007;50.632;13.700;2024-03-22T11:52:18;25.45;;;4.97;;
75426;SDS011;64007;50.632;13.700;2024-03-22T11:54:49;16.02;;;4.63;;
75426;SDS011;64007;50.632;13.700;2024-03-22T11:57:17;18.92;;;4.88;;
75426;SDS011;64007;50.632;13.700;2024-03-22T11:59:43;16.45;;;5.10;;
75426;SDS011;64007;50.632;13.700;2024-03-22T12:02:10;13.10;;;5.43;;
75426;SDS011;64007;50.632;13.700;2024-03-22T12:04:35;22.00;;;5.15;;
75426;SDS011;64007;50.632;13.700;2024-03-22T12:07:01;22.25;;;5.55;;
75426;SDS011;64007;50.632;13.700;2024-03-22T12:09:27;14.15;;;4.60;;
75426;SDS011;64007;50.632;13.700;2024-03-22T12:11:55;24.20;;;4.88;;
75426;SDS011;64007;50.632;13.700;2024-03-22T12:14:21;21.63;;;5.55;;
75426;SDS011;64007;50.632;13.700;2024-03-22T12:16:46;20.02;;;4.95;;
75426;SDS011;64007;50.632;13.700;2024-03-22T12:19:12;23.45;;;5.20;;
75426;SDS011;64007;50.632;13.700;2024-03-22T12:21:38;9.13;;;4.40;;
75426;SDS011;64007;50.632;13.700;2024-03-22T12:24:04;11.65;;;4.05;;
75426;SDS011;64007;50.632;13.700;2024-03-22T12:26:30;8.68;;;4.47;;
75426;SDS011;64007;50.632;13.700;2024-03-22T12:28:57;9.77;;;4.70;;
75426;SDS011;64007;50.632;13.700;2024-03-22T12:31:23;14.20;;;4.32;;
75426;SDS011;64007;50.632;13.700;2024-03-22T12:33:49;7.28;;;3.60;;
75426;SDS011;64007;50.632;13.700;2024-03-22T12:36:15;8.25;;;3.30;;
75426;SDS011;64007;50.632;13.700;2024-03-22T12:38:43;18.95;;;5.00;;
75426;SDS011;64007;50.632;13.700;2024-03-22T12:41:09;7.43;;;3.10;;
75426;SDS011;64007;50.632;13.700;2024-03-22T12:43:35;11.25;;;3.20;;
75426;SDS011;64007;50.632;13.700;2024-03-22T12:46:01;10.30;;;3.75;;
75426;SDS011;64007;50.632;13.700;2024-03-22T12:48:28;12.07;;;3.75;;
75426;SDS011;64007;50.632;13.700;2024-03-22T12:50:53;19.40;;;4.20;;
75426;SDS011;64007;50.632;13.700;2024-03-22T12:53:19;7.68;;;4.03;;
75426;SDS011;64007;50.632;13.700;2024-03-22T12:55:45;8.93;;;4.20;;
75426;SDS011;64007;50.632;13.700;2024-03-22T12:58:10;11.23;;;3.80;;
75426;SDS011;64007;50.632;13.700;2024-03-22T13:00:36;8.02;;;3.35;;
75426;SDS011;64007;50.632;13.700;2024-03-22T13:03:02;10.68;;;4.55;;
75426;SDS011;64007;50.632;13.700;2024-03-22T13:05:28;8.40;;;3.95;;
75426;SDS011;64007;50.632;13.700;2024-03-22T13:07:55;11.55;;;4.97;;
75426;SDS011;64007;50.632;13.700;2024-03-22T13:10:21;11.13;;;4.55;;
75426;SDS011;64007;50.632;13.700;2024-03-22T13:12:47;10.60;;;4.60;;
75426;SDS011;64007;50.632;13.700;2024-03-22T13:15:13;11.73;;;4.45;;
75426;SDS011;64007;50.632;13.700;2024-03-22T13:17:38;10.18;;;4.78;;
75426;SDS011;64007;50.632;13.700;2024-03-22T13:20:04;9.77;;;4.43;;
75426;SDS011;64007;50.632;13.700;2024-03-22T13:22:36;9.00;;;4.50;;
75426;SDS011;64007;50.632;13.700;2024-03-22T13:25:06;9.98;;;4.32;;
75426;SDS011;64007;50.632;13.700;2024-03-22T13:27:34;11.90;;;4.00;;
75426;SDS011;64007;50.632;13.700;2024-03-22T13:30:00;13.18;;;4.78;;
75426;SDS011;64007;50.632;13.700;2024-03-22T13:32:27;11.82;;;4.13;;
75426;SDS011;64007;50.632;13.700;2024-03-22T13:34:53;14.02;;;4.18;;
75426;SDS011;64007;50.632;13.700;2024-03-22T13:37:18;12.25;;;4.10;;
75426;SDS011;64007;50.632;13.700;2024-03-22T13:39:50;17.85;;;4.53;;
75426;SDS011;64007;50.632;13.700;2024-03-22T13:42:16;12.13;;;3.93;;
75426;SDS011;64007;50.632;13.700;2024-03-22T13:44:42;11.07;;;3.33;;
75426;SDS011;64007;50.632;13.700;2024-03-22T13:47:08;10.07;;;3.50;;
75426;SDS011;64007;50.632;13.700;2024-03-22T13:49:34;8.00;;;2.75;;
75426;SDS011;64007;50.632;13.700;2024-03-22T13:51:59;6.85;;;2.63;;
75426;SDS011;64007;50.632;13.700;2024-03-22T13:54:25;6.20;;;2.40;;
75426;SDS011;64007;50.632;13.700;2024-03-22T13:56:51;3.55;;;2.22;;
75426;SDS011;64007;50.632;13.700;2024-03-22T13:59:17;4.22;;;2.05;;
75426;SDS011;64007;50.632;13.700;2024-03-22T14:01:42;4.75;;;2.25;;
75426;SDS011;64007;50.632;13.700;2024-03-22T14:04:10;7.32;;;3.53;;
75426;SDS011;64007;50.632;13.700;2024-03-22T14:06:37;6.78;;;2.30;;
75426;SDS011;64007;50.632;13.700;2024-03-22T14:09:03;4.88;;;2.00;;
75426;SDS011;64007;50.632;13.700;2024-03-22T14:11:30;7.97;;;3.00;;
75426;SDS011;64007;50.632;13.700;2024-03-22T14:13:56;4.00;;;2.20;;
75426;SDS011;64007;50.632;13.700;2024-03-22T14:16:23;9.43;;;3.00;;
75426;SDS011;64007;50.632;13.700;2024-03-22T14:18:49;5.45;;;2.78;;
75426;SDS011;64007;50.632;13.700;2024-03-22T14:21:15;10.00;;;2.75;;
75426;SDS011;64007;50.632;13.700;2024-03-22T14:23:45;5.88;;;3.00;;
75426;SDS011;64007;50.632;13.700;2024-03-22T14:26:11;7.45;;;2.53;;
75426;SDS011;64007;50.632;13.700;2024-03-22T14:28:38;10.68;;;3.63;;
75426;SDS011;64007;50.632;13.700;2024-03-22T14:31:08;8.07;;;3.72;;
75426;SDS011;64007;50.632;13.700;2024-03-22T14:33:35;9.38;;;3.38;;
75426;SDS011;64007;50.632;13.700;2024-03-22T14:36:01;11.38;;;4.00;;
75426;SDS011;64007;50.632;13.700;2024-03-22T14:38:28;12.88;;;4.15;;
75426;SDS011;64007;50.632;13.700;2024-03-22T14:40:54;7.22;;;3.35;;
75426;SDS011;64007;50.632;13.700;2024-03-22T14:43:23;16.35;;;3.85;;